sensor_id;sensor_type;location;lat;lon;timestamp;P1;durP1;ratioP1;P2;durP2;ratioP2
28166;SDS011;15455;53.376;-6.262;2024-01-27T00:01:02;9.25;;;2.22;;
28166;SDS011;15455;53.376;-6.262;2024-01-27T00:03:48;10.35;;;1.48;;
28166;SDS011;15455;53.376;-6.262;2024-01-27T00:06:35;7.28;;;1.90;;
28166;SDS011;15455;53.376;-6.262;2024-01-27T00:09:20;10.13;;;2.53;;
28166;SDS011;15455;53.376;-6.262;2024-01-27T00:12:06;6.93;;;2.05;;
28166;SDS011;15455;53.376;-6.262;2024-01-27T00:14:52;10.13;;;1.77;;
28166;SDS011;15455;53.376;-6.262;2024-01-27T00:17:37;10.85;;;2.05;;
28166;SDS011;15455;53.376;-6.262;2024-01-27T00:20:23;6.53;;;1.80;;
28166;SDS011;15455;53.376;-6.262;2024-01-27T00:23:09;11.60;;;2.20;;
28166;SDS011;15455;53.376;-6.262;2024-01-27T00:25:54;11.32;;;1.80;;
28166;SDS011;15455;53.376;-6.262;2024-01-27T00:28:40;12.23;;;2.75;;
28166;SDS011;15455;53.376;-6.262;2024-01-27T00:31:25;8.23;;;1.42;;
28166;SDS011;15455;53.376;-6.262;2024-01-27T00:34:11;7.38;;;1.95;;
28166;SDS011;15455;53.376;-6.262;2024-01-27T00:36:56;11.82;;;1.55;;
28166;SDS011;15455;53.376;-6.262;2024-01-27T00:39:42;13.07;;;1.33;;
28166;SDS011;15455;53.376;-6.262;2024-01-27T00:42:28;13.13;;;2.08;;
28166;SDS011;15455;53.376;-6.262;2024-01-27T00:45:14;14.07;;;2.03;;
28166;SDS011;15455;53.376;-6.262;2024-01-27T00:48:00;3.22;;;1.70;;
28166;SDS011;15455;53.376;-6.262;2024-01-27T00:50:45;9.52;;;1.77;;
28166;SDS011;15455;53.376;-6.262;2024-01-27T00:53:31;9.07;;;1.95;;
28166;SDS011;15455;53.376;-6.262;2024-01-27T00:56:16;12.70;;;1.65;;
28166;SDS011;15455;53.376;-6.262;2024-01-27T00:59:02;5.28;;;1.63;;
28166;SDS011;15455;53.376;-6.262;2024-01-27T01:01:47;14.80;;;2.10;;
28166;SDS011;15455;53.376;-6.262;2024-01-27T01:04:33;14.00;;;1.92;;
28166;SDS011;15455;53.376;-6.262;2024-01-27T01:07:19;7.40;;;1.83;;
28166;SDS011;15455;53.376;-6.262;2024-01-27T01:10:05;11.18;;;1.63;;
28166;SDS011;15455;53.376;-6.262;2024-01-27T01:12:51;12.52;;;1.55;;
28166;SDS011;15455;53.376;-6.262;2024-01-27T01:15:37;7.72;;;1.35;;
28166;SDS011;15455;53.376;-6.262;2024-01-27T01:18:22;13.25;;;1.30;;
28166;SDS011;15455;53.376;-6.262;2024-01-27T01:21:08;8.40;;;2.20;;
28166;SDS011;15455;53.376;-6.262;2024-01-27T01:23:54;13.38;;;1.67;;
28166;SDS011;15455;53.376;-6.262;2024-01-27T01:26:39;4.72;;;1.63;;
28166;SDS011;15455;53.376;-6.262;2024-01-27T01:29:25;6.82;;;1.25;;
28166;SDS011;15455;53.376;-6.262;2024-01-27T01:32:11;10.02;;;1.10;;
28166;SDS011;15455;53.376;-6.262;2024-01-27T01:34:57;6.80;;;2.33;;
28166;SDS011;15455;53.376;-6.262;2024-01-27T01:37:42;3.25;;;1.00;;
28166;SDS011;15455;53.376;-6.262;2024-01-27T01:40:28;7.60;;;1.40;;
28166;SDS011;15455;53.376;-6.262;2024-01-27T01:43:14;5.57;;;1.17;;
28166;SDS011;15455;53.376;-6.262;2024-01-27T01:46:00;16.10;;;1.40;;
28166;SDS011;15455;53.376;-6.262;2024-01-27T01:48:45;7.82;;;1.00;;
28166;SDS011;15455;53.376;-6.262;2024-01-27T01:51:31;8.13;;;1.25;;
28166;SDS011;15455;53.376;-6.262;2024-01-27T01:54:17;4.32;;;1.92;;
28166;SDS011;15455;53.376;-6.262;2024-01-27T01:57:03;5.50;;;0.98;;
28166;SDS011;15455;53.376;-6.262;2024-01-27T01:59:49;10.60;;;1.55;;
28166;SDS011;15455;53.376;-6.262;2024-01-27T02:02:35;5.63;;;1.00;;
28166;SDS011;15455;53.376;-6.262;2024-01-27T02:05:20;11.05;;;1.30;;
28166;SDS011;15455;53.376;-6.262;2024-01-27T02:08:06;3.50;;;0.90;;
28166;SDS011;15455;53.376;-6.262;2024-01-27T02:10:54;8.60;;;1.00;;
28166;SDS011;15455;53.376;-6.262;2024-01-27T02:13:40;14.63;;;1.63;;
28166;SDS011;15455;53.376;-6.262;2024-01-27T02:16:25;5.75;;;0.90;;
28166;SDS011;15455;53.376;-6.262;2024-01-27T02:19:11;11.48;;;1.33;;
28166;SDS011;15455;53.376;-6.262;2024-01-27T02:21:57;7.78;;;0.80;;
28166;SDS011;15455;53.376;-6.262;2024-01-27T02:24:42;5.90;;;0.80;;
28166;SDS011;15455;53.376;-6.262;2024-01-27T02:27:28;16.70;;;1.90;;
28166;SDS011;15455;53.376;-6.262;2024-01-27T02:30:14;4.55;;;1.10;;
28166;SDS011;15455;53.376;-6.262;2024-01-27T02:33:00;1.42;;;0.80;;
28166;SDS011;15455;53.376;-6.262;2024-01-27T02:35:46;11.77;;;1.40;;
28166;SDS011;15455;53.376;-6.262;2024-01-27T02:38:33;7.28;;;1.15;;
28166;SDS011;15455;53.376;-6.262;2024-01-27T02:41:19;5.20;;;0.57;;
28166;SDS011;15455;53.376;-6.262;2024-01-27T02:44:05;2.47;;;1.25;;
28166;SDS011;15455;53.376;-6.262;2024-01-27T02:46:51;3.42;;;0.77;;
28166;SDS011;15455;53.376;-6.262;2024-01-27T02:49:37;4.43;;;0.90;;
28166;SDS011;15455;53.376;-6.262;2024-01-27T02:52:22;11.48;;;0.82;;
28166;SDS011;15455;53.376;-6.262;2024-01-27T02:55:08;5.80;;;0.70;;
28166;SDS011;15455;53.376;-6.262;2024-01-27T02:57:54;3.53;;;0.77;;
28166;SDS011;15455;53.376;-6.262;2024-01-27T03:00:39;10.43;;;1.13;;
28166;SDS011;15455;53.376;-6.262;2024-01-27T03:03:25;6.68;;;0.90;;
28166;SDS011;15455;53.376;-6.262;2024-01-27T03:06:11;7.13;;;0.98;;
28166;SDS011;15455;53.376;-6.262;2024-01-27T03:08:56;4.55;;;1.00;;
28166;SDS011;15455;53.376;-6.262;2024-01-27T03:11:42;1.92;;;0.65;;
28166;SDS011;15455;53.376;-6.262;2024-01-27T03:14:28;1.20;;;0.60;;
28166;SDS011;15455;53.376;-6.262;2024-01-27T03:17:14;6.07;;;0.52;;
28166;SDS011;15455;53.376;-6.262;2024-01-27T03:19:59;4.28;;;0.75;;
28166;SDS011;15455;53.376;-6.262;2024-01-27T03:22:45;7.20;;;1.15;;
28166;SDS011;15455;53.376;-6.262;2024-01-27T03:25:31;6.15;;;1.58;;
28166;SDS011;15455;53.376;-6.262;2024-01-27T03:28:17;5.35;;;0.68;;
28166;SDS011;15455;53.376;-6.262;2024-01-27T03:31:02;9.95;;;1.00;;
28166;SDS011;15455;53.376;-6.262;2024-01-27T03:33:48;2.35;;;0.52;;
28166;SDS011;15455;53.376;-6.262;2024-01-27T03:36:35;6.90;;;1.55;;
28166;SDS011;15455;53.376;-6.262;2024-01-27T03:39:20;6.30;;;1.10;;
28166;SDS011;15455;53.376;-6.262;2024-01-27T03:42:06;11.05;;;0.77;;
28166;SDS011;15455;53.376;-6.262;2024-01-27T03:44:51;7.85;;;0.88;;
28166;SDS011;15455;53.376;-6.262;2024-01-27T03:47:37;10.95;;;0.75;;
28166;SDS011;15455;53.376;-6.262;2024-01-27T03:50:23;10.30;;;1.67;;
28166;SDS011;15455;53.376;-6.262;2024-01-27T03:53:08;5.60;;;0.85;;
28166;SDS011;15455;53.376;-6.262;2024-01-27T03:55:54;4.40;;;1.30;;
28166;SDS011;15455;53.376;-6.262;2024-01-27T03:58:43;6.32;;;0.75;;
28166;SDS011;15455;53.376;-6.262;2024-01-27T04:01:29;8.02;;;0.95;;
28166;SDS011;15455;53.376;-6.262;2024-01-27T04:04:14;5.63;;;0.60;;
28166;SDS011;15455;53.376;-6.262;2024-01-27T04:07:00;5.85;;;0.73;;
28166;SDS011;15455;53.376;-6.262;2024-01-27T04:09:47;12.82;;;0.70;;
28166;SDS011;15455;53.376;-6.262;2024-01-27T04:12:33;1.17;;;0.60;;
28166;SDS011;15455;53.376;-6.262;2024-01-27T04:15:19;4.93;;;0.90;;
28166;SDS011;15455;53.376;-6.262;2024-01-27T04:18:07;5.90;;;0.68;;
28166;SDS011;15455;53.376;-6.262;2024-01-27T04:20:54;3.40;;;0.63;;
28166;SDS011;15455;53.376;-6.262;2024-01-27T04:23:39;5.25;;;0.88;;
28166;SDS011;15455;53.376;-6.262;2024-01-27T04:26:24;7.00;;;1.10;;
28166;SDS011;15455;53.376;-6.262;2024-01-27T04:29:10;2.35;;;0.73;;
28166;SDS011;15455;53.376;-6.262;2024-01-27T04:32:00;10.82;;;0.90;;
28166;SDS011;15455;53.376;-6.262;2024-01-27T04:34:45;4.55;;;0.88;;
28166;SDS011;15455;53.376;-6.262;2024-01-27T04:37:31;5.60;;;0.98;;
28166;SDS011;15455;53.376;-6.262;2024-01-27T04:40:16;0.52;;;0.22;;
28166;SDS011;15455;53.376;-6.262;2024-01-27T04:43:02;6.75;;;0.60;;
28166;SDS011;15455;53.376;-6.262;2024-01-27T04:45:48;8.73;;;0.70;;
28166;SDS011;15455;53.376;-6.262;2024-01-27T04:48:34;7.43;;;0.63;;
28166;SDS011;15455;53.376;-6.262;2024-01-27T04:51:20;4.00;;;1.52;;
28166;SDS011;15455;53.376;-6.262;2024-01-27T04:54:05;2.45;;;0.73;;
28166;SDS011;15455;53.376;-6.262;2024-01-27T04:56:51;12.68;;;1.25;;
28166;SDS011;15455;53.376;-6.262;2024-01-27T04:59:37;14.43;;;1.13;;
28166;SDS011;15455;53.376;-6.262;2024-01-27T05:02:22;2.92;;;0.63;;
28166;SDS011;15455;53.376;-6.262;2024-01-27T05:05:08;12.70;;;0.73;;
28166;SDS011;15455;53.376;-6.262;2024-01-27T05:07:54;2.70;;;0.52;;
28166;SDS011;15455;53.376;-6.262;2024-01-27T05:10:40;8.73;;;1.02;;
28166;SDS011;15455;53.376;-6.262;2024-01-27T05:13:25;6.22;;;1.38;;
28166;SDS011;15455;53.376;-6.262;2024-01-27T05:16:10;5.72;;;0.55;;
28166;SDS011;15455;53.376;-6.262;2024-01-27T05:18:56;3.28;;;0.65;;
28166;SDS011;15455;53.376;-6.262;2024-01-27T05:21:42;7.22;;;1.17;;
28166;SDS011;15455;53.376;-6.262;2024-01-27T05:24:27;5.45;;;1.00;;
28166;SDS011;15455;53.376;-6.262;2024-01-27T05:27:13;5.57;;;0.52;;
28166;SDS011;15455;53.376;-6.262;2024-01-27T05:29:59;6.47;;;0.90;;
28166;SDS011;15455;53.376;-6.262;2024-01-27T05:32:44;4.68;;;0.80;;
28166;SDS011;15455;53.376;-6.262;2024-01-27T05:35:30;3.13;;;0.70;;
28166;SDS011;15455;53.376;-6.262;2024-01-27T05:38:16;7.40;;;1.17;;
28166;SDS011;15455;53.376;-6.262;2024-01-27T05:41:02;6.40;;;0.68;;
28166;SDS011;15455;53.376;-6.262;2024-01-27T05:43:48;3.17;;;0.75;;
28166;SDS011;15455;53.376;-6.262;2024-01-27T05:46:34;5.50;;;1.00;;
28166;SDS011;15455;53.376;-6.262;2024-01-27T05:49:19;8.48;;;1.10;;
28166;SDS011;15455;53.376;-6.262;2024-01-27T05:52:05;7.78;;;1.20;;
28166;SDS011;15455;53.376;-6.262;2024-01-27T05:54:50;2.35;;;0.50;;
28166;SDS011;15455;53.376;-6.262;2024-01-27T05:57:37;9.35;;;1.02;;
28166;SDS011;15455;53.376;-6.262;2024-01-27T06:00:22;9.07;;;1.17;;
28166;SDS011;15455;53.376;-6.262;2024-01-27T06:03:08;5.68;;;0.55;;
28166;SDS011;15455;53.376;-6.262;2024-01-27T06:05:54;8.23;;;1.42;;
28166;SDS011;15455;53.376;-6.262;2024-01-27T06:08:40;9.60;;;1.27;;
28166;SDS011;15455;53.376;-6.262;2024-01-27T06:11:26;9.25;;;1.60;;
28166;SDS011;15455;53.376;-6.262;2024-01-27T06:14:12;4.70;;;0.70;;
28166;SDS011;15455;53.376;-6.262;2024-01-27T06:16:57;3.95;;;0.68;;
28166;SDS011;15455;53.376;-6.262;2024-01-27T06:19:43;10.88;;;1.50;;
28166;SDS011;15455;53.376;-6.262;2024-01-27T06:22:29;10.40;;;1.58;;
28166;SDS011;15455;53.376;-6.262;2024-01-27T06:25:17;7.55;;;1.10;;
28166;SDS011;15455;53.376;-6.262;2024-01-27T06:28:02;3.83;;;0.82;;
28166;SDS011;15455;53.376;-6.262;2024-01-27T06:30:48;15.45;;;1.20;;
28166;SDS011;15455;53.376;-6.262;2024-01-27T06:33:34;8.77;;;1.00;;
28166;SDS011;15455;53.376;-6.262;2024-01-27T06:36:20;8.13;;;0.93;;
28166;SDS011;15455;53.376;-6.262;2024-01-27T06:39:07;4.07;;;0.77;;
28166;SDS011;15455;53.376;-6.262;2024-01-27T06:41:53;10.50;;;1.20;;
28166;SDS011;15455;53.376;-6.262;2024-01-27T06:44:38;4.47;;;1.02;;
28166;SDS011;15455;53.376;-6.262;2024-01-27T06:47:24;3.35;;;0.90;;
28166;SDS011;15455;53.376;-6.262;2024-01-27T06:50:09;7.63;;;1.35;;
28166;SDS011;15455;53.376;-6.262;2024-01-27T06:52:55;4.53;;;0.95;;
28166;SDS011;15455;53.376;-6.262;2024-01-27T06:55:41;7.22;;;0.70;;
28166;SDS011;15455;53.376;-6.262;2024-01-27T06:58:28;4.90;;;0.90;;
28166;SDS011;15455;53.376;-6.262;2024-01-27T07:01:14;8.77;;;1.33;;
28166;SDS011;15455;53.376;-6.262;2024-01-27T07:04:00;5.00;;;0.93;;
28166;SDS011;15455;53.376;-6.262;2024-01-27T07:06:46;11.68;;;1.02;;
28166;SDS011;15455;53.376;-6.262;2024-01-27T07:09:32;7.10;;;2.03;;
28166;SDS011;15455;53.376;-6.262;2024-01-27T07:12:17;5.30;;;0.93;;
28166;SDS011;15455;53.376;-6.262;2024-01-27T07:15:03;6.95;;;0.73;;
28166;SDS011;15455;53.376;-6.262;2024-01-27T07:17:48;8.38;;;1.15;;
28166;SDS011;15455;53.376;-6.262;2024-01-27T07:20:34;12.75;;;2.03;;
28166;SDS011;15455;53.376;-6.262;2024-01-27T07:23:20;4.55;;;0.90;;
28166;SDS011;15455;53.376;-6.262;2024-01-27T07:26:07;8.68;;;0.82;;
28166;SDS011;15455;53.376;-6.262;2024-01-27T07:28:54;9.30;;;1.30;;
28166;SDS011;15455;53.376;-6.262;2024-01-27T07:31:40;4.30;;;1.10;;
28166;SDS011;15455;53.376;-6.262;2024-01-27T07:34:25;7.93;;;1.23;;
28166;SDS011;15455;53.376;-6.262;2024-01-27T07:37:11;4.28;;;0.90;;
28166;SDS011;15455;53.376;-6.262;2024-01-27T07:39:56;8.63;;;0.85;;
28166;SDS011;15455;53.376;-6.262;2024-01-27T07:42:42;8.23;;;1.08;;
28166;SDS011;15455;53.376;-6.262;2024-01-27T07:45:28;4.75;;;1.02;;
28166;SDS011;15455;53.376;-6.262;2024-01-27T07:48:13;14.43;;;1.85;;
28166;SDS011;15455;53.376;-6.262;2024-01-27T07:50:59;7.20;;;0.90;;
28166;SDS011;15455;53.376;-6.262;2024-01-27T07:53:46;7.70;;;1.25;;
28166;SDS011;15455;53.376;-6.262;2024-01-27T07:56:31;14.50;;;0.98;;
28166;SDS011;15455;53.376;-6.262;2024-01-27T07:59:17;5.28;;;0.95;;
28166;SDS011;15455;53.376;-6.262;2024-01-27T08:02:03;8.82;;;0.98;;
28166;SDS011;15455;53.376;-6.262;2024-01-27T08:04:50;7.60;;;1.30;;
28166;SDS011;15455;53.376;-6.262;2024-01-27T08:07:36;4.80;;;0.98;;
28166;SDS011;15455;53.376;-6.262;2024-01-27T08:10:22;10.02;;;1.23;;
28166;SDS011;15455;53.376;-6.262;2024-01-27T08:13:08;8.52;;;1.40;;
28166;SDS011;15455;53.376;-6.262;2024-01-27T08:15:53;11.18;;;1.23;;
28166;SDS011;15455;53.376;-6.262;2024-01-27T08:18:39;7.28;;;1.85;;
28166;SDS011;15455;53.376;-6.262;2024-01-27T08:21:27;7.55;;;1.13;;
28166;SDS011;15455;53.376;-6.262;2024-01-27T08:24:16;6.25;;;1.25;;
28166;SDS011;15455;53.376;-6.262;2024-01-27T08:27:01;8.88;;;1.20;;
28166;SDS011;15455;53.376;-6.262;2024-01-27T08:29:47;8.88;;;1.13;;
28166;SDS011;15455;53.376;-6.262;2024-01-27T08:32:33;13.68;;;1.40;;
28166;SDS011;15455;53.376;-6.262;2024-01-27T08:35:20;11.23;;;1.35;;
28166;SDS011;15455;53.376;-6.262;2024-01-27T08:38:05;11.98;;;2.35;;
28166;SDS011;15455;53.376;-6.262;2024-01-27T08:40:51;9.93;;;1.40;;
28166;SDS011;15455;53.376;-6.262;2024-01-27T08:43:36;9.45;;;1.20;;
28166;SDS011;15455;53.376;-6.262;2024-01-27T08:46:22;4.28;;;1.25;;
28166;SDS011;15455;53.376;-6.262;2024-01-27T08:49:07;14.75;;;1.48;;
28166;SDS011;15455;53.376;-6.262;2024-01-27T08:51:53;20.80;;;2.25;;
28166;SDS011;15455;53.376;-6.262;2024-01-27T08:54:40;12.50;;;1.17;;
28166;SDS011;15455;53.376;-6.262;2024-01-27T08:57:26;10.90;;;1.10;;
28166;SDS011;15455;53.376;-6.262;2024-01-27T09:00:12;5.63;;;1.35;;
28166;SDS011;15455;53.376;-6.262;2024-01-27T09:02:58;8.18;;;1.17;;
28166;SDS011;15455;53.376;-6.262;2024-01-27T09:05:44;15.38;;;1.90;;
28166;SDS011;15455;53.376;-6.262;2024-01-27T09:08:30;13.70;;;1.20;;
28166;SDS011;15455;53.376;-6.262;2024-01-27T09:11:16;9.25;;;1.63;;
28166;SDS011;15455;53.376;-6.262;2024-01-27T09:14:01;9.70;;;2.08;;
28166;SDS011;15455;53.376;-6.262;2024-01-27T09:16:48;11.80;;;1.23;;
28166;SDS011;15455;53.376;-6.262;2024-01-27T09:19:33;15.23;;;1.95;;
28166;SDS011;15455;53.376;-6.262;2024-01-27T09:22:18;8.18;;;1.23;;
28166;SDS011;15455;53.376;-6.262;2024-01-27T09:25:04;18.38;;;2.08;;
28166;SDS011;15455;53.376;-6.262;2024-01-27T09:27:50;11.00;;;1.27;;
28166;SDS011;15455;53.376;-6.262;2024-01-27T09:30:37;10.20;;;2.03;;
28166;SDS011;15455;53.376;-6.262;2024-01-27T09:33:24;12.07;;;1.95;;
28166;SDS011;15455;53.376;-6.262;2024-01-27T09:36:10;15.30;;;1.95;;
28166;SDS011;15455;53.376;-6.262;2024-01-27T09:38:56;18.73;;;1.95;;
28166;SDS011;15455;53.376;-6.262;2024-01-27T09:41:41;18.20;;;2.30;;
28166;SDS011;15455;53.376;-6.262;2024-01-27T09:44:28;10.55;;;1.58;;
28166;SDS011;15455;53.376;-6.262;2024-01-27T09:47:17;13.75;;;1.88;;
28166;SDS011;15455;53.376;-6.262;2024-01-27T09:50:05;12.85;;;2.15;;
28166;SDS011;15455;53.376;-6.262;2024-01-27T09:52:51;14.88;;;2.03;;
28166;SDS011;15455;53.376;-6.262;2024-01-27T09:55:38;13.60;;;1.65;;
28166;SDS011;15455;53.376;-6.262;2024-01-27T09:58:23;15.10;;;1.98;;
28166;SDS011;15455;53.376;-6.262;2024-01-27T10:01:12;7.07;;;1.77;;
28166;SDS011;15455;53.376;-6.262;2024-01-27T10:04:03;13.00;;;2.45;;
28166;SDS011;15455;53.376;-6.262;2024-01-27T10:06:56;15.77;;;2.33;;
28166;SDS011;15455;53.376;-6.262;2024-01-27T10:09:43;16.95;;;1.92;;
28166;SDS011;15455;53.376;-6.262;2024-01-27T10:12:29;12.38;;;1.40;;
28166;SDS011;15455;53.376;-6.262;2024-01-27T10:15:20;10.15;;;1.20;;
28166;SDS011;15455;53.376;-6.262;2024-01-27T10:18:06;10.95;;;1.95;;
28166;SDS011;15455;53.376;-6.262;2024-01-27T10:20:53;17.67;;;1.98;;
28166;SDS011;15455;53.376;-6.262;2024-01-27T10:23:39;21.92;;;3.17;;
28166;SDS011;15455;53.376;-6.262;2024-01-27T10:26:25;26.58;;;3.95;;
28166;SDS011;15455;53.376;-6.262;2024-01-27T10:29:10;8.68;;;2.00;;
28166;SDS011;15455;53.376;-6.262;2024-01-27T10:32:06;11.77;;;2.85;;
28166;SDS011;15455;53.376;-6.262;2024-01-27T10:35:05;16.90;;;2.03;;
28166;SDS011;15455;53.376;-6.262;2024-01-27T10:37:55;10.52;;;1.70;;
28166;SDS011;15455;53.376;-6.262;2024-01-27T10:40:43;11.27;;;2.55;;
28166;SDS011;15455;53.376;-6.262;2024-01-27T10:43:29;13.25;;;2.28;;
28166;SDS011;15455;53.376;-6.262;2024-01-27T10:46:21;12.90;;;2.45;;
28166;SDS011;15455;53.376;-6.262;2024-01-27T10:49:07;17.77;;;2.70;;
28166;SDS011;15455;53.376;-6.262;2024-01-27T10:51:58;14.10;;;2.28;;
28166;SDS011;15455;53.376;-6.262;2024-01-27T10:54:48;11.65;;;1.88;;
28166;SDS011;15455;53.376;-6.262;2024-01-27T10:57:34;5.15;;;1.90;;
28166;SDS011;15455;53.376;-6.262;2024-01-27T11:00:21;19.27;;;2.63;;
28166;SDS011;15455;53.376;-6.262;2024-01-27T11:03:09;14.90;;;2.85;;
28166;SDS011;15455;53.376;-6.262;2024-01-27T11:05:57;11.63;;;1.48;;
28166;SDS011;15455;53.376;-6.262;2024-01-27T11:08:45;20.88;;;2.75;;
28166;SDS011;15455;53.376;-6.262;2024-01-27T11:11:31;14.30;;;2.60;;
28166;SDS011;15455;53.376;-6.262;2024-01-27T11:14:17;18.67;;;2.33;;
28166;SDS011;15455;53.376;-6.262;2024-01-27T11:17:03;9.40;;;1.55;;
28166;SDS011;15455;53.376;-6.262;2024-01-27T11:19:49;16.75;;;2.58;;
28166;SDS011;15455;53.376;-6.262;2024-01-27T11:22:35;20.52;;;2.38;;
28166;SDS011;15455;53.376;-6.262;2024-01-27T11:25:22;21.33;;;2.30;;
28166;SDS011;15455;53.376;-6.262;2024-01-27T11:28:11;25.65;;;2.63;;
28166;SDS011;15455;53.376;-6.262;2024-01-27T11:31:02;17.25;;;2.00;;
28166;SDS011;15455;53.376;-6.262;2024-01-27T11:33:49;15.15;;;3.00;;
28166;SDS011;15455;53.376;-6.262;2024-01-27T11:36:38;19.95;;;2.63;;
28166;SDS011;15455;53.376;-6.262;2024-01-27T11:39:28;13.02;;;2.78;;
28166;SDS011;15455;53.376;-6.262;2024-01-27T11:42:16;18.38;;;2.78;;
28166;SDS011;15455;53.376;-6.262;2024-01-27T11:45:03;12.30;;;2.63;;
28166;SDS011;15455;53.376;-6.262;2024-01-27T11:47:49;14.73;;;2.70;;
28166;SDS011;15455;53.376;-6.262;2024-01-27T11:50:36;14.95;;;2.33;;
28166;SDS011;15455;53.376;-6.262;2024-01-27T11:53:23;19.65;;;2.60;;
28166;SDS011;15455;53.376;-6.262;2024-01-27T11:56:08;16.35;;;2.35;;
28166;SDS011;15455;53.376;-6.262;2024-01-27T11:58:55;20.17;;;2.35;;
28166;SDS011;15455;53.376;-6.262;2024-01-27T12:01:41;13.40;;;1.92;;
28166;SDS011;15455;53.376;-6.262;2024-01-27T12:04:27;13.05;;;2.13;;
28166;SDS011;15455;53.376;-6.262;2024-01-27T12:07:14;8.93;;;1.67;;
28166;SDS011;15455;53.376;-6.262;2024-01-27T12:10:00;19.30;;;2.55;;
28166;SDS011;15455;53.376;-6.262;2024-01-27T12:12:46;19.75;;;2.75;;
28166;SDS011;15455;53.376;-6.262;2024-01-27T12:15:31;10.20;;;2.17;;
28166;SDS011;15455;53.376;-6.262;2024-01-27T12:18:17;18.08;;;2.78;;
28166;SDS011;15455;53.376;-6.262;2024-01-27T12:21:07;13.40;;;3.00;;
28166;SDS011;15455;53.376;-6.262;2024-01-27T12:23:55;15.98;;;2.28;;
28166;SDS011;15455;53.376;-6.262;2024-01-27T12:26:44;19.88;;;2.30;;
28166;SDS011;15455;53.376;-6.262;2024-01-27T12:29:30;11.32;;;2.22;;
28166;SDS011;15455;53.376;-6.262;2024-01-27T12:32:18;11.60;;;2.35;;
28166;SDS011;15455;53.376;-6.262;2024-01-27T12:35:04;19.58;;;4.07;;
28166;SDS011;15455;53.376;-6.262;2024-01-27T12:37:51;18.95;;;3.17;;
28166;SDS011;15455;53.376;-6.262;2024-01-27T12:40:37;13.57;;;2.72;;
28166;SDS011;15455;53.376;-6.262;2024-01-27T12:43:23;13.40;;;1.80;;
28166;SDS011;15455;53.376;-6.262;2024-01-27T12:46:08;16.10;;;3.05;;
28166;SDS011;15455;53.376;-6.262;2024-01-27T12:48:56;16.45;;;1.77;;
28166;SDS011;15455;53.376;-6.262;2024-01-27T12:51:42;19.45;;;2.45;;
28166;SDS011;15455;53.376;-6.262;2024-01-27T12:54:28;14.20;;;2.85;;
28166;SDS011;15455;53.376;-6.262;2024-01-27T12:57:14;13.07;;;2.55;;
28166;SDS011;15455;53.376;-6.262;2024-01-27T13:00:03;18.95;;;4.25;;
28166;SDS011;15455;53.376;-6.262;2024-01-27T13:02:54;16.75;;;2.92;;
28166;SDS011;15455;53.376;-6.262;2024-01-27T13:05:40;15.50;;;2.47;;
28166;SDS011;15455;53.376;-6.262;2024-01-27T13:08:25;15.60;;;2.55;;
28166;SDS011;15455;53.376;-6.262;2024-01-27T13:11:11;20.42;;;3.00;;
28166;SDS011;15455;53.376;-6.262;2024-01-27T13:13:58;16.48;;;2.17;;
28166;SDS011;15455;53.376;-6.262;2024-01-27T13:16:44;19.98;;;2.03;;
28166;SDS011;15455;53.376;-6.262;2024-01-27T13:19:29;20.60;;;3.45;;
28166;SDS011;15455;53.376;-6.262;2024-01-27T13:22:16;18.58;;;2.13;;
28166;SDS011;15455;53.376;-6.262;2024-01-27T13:25:02;20.25;;;2.65;;
28166;SDS011;15455;53.376;-6.262;2024-01-27T13:27:53;14.95;;;2.65;;
28166;SDS011;15455;53.376;-6.262;2024-01-27T13:30:39;16.45;;;2.45;;
28166;SDS011;15455;53.376;-6.262;2024-01-27T13:33:25;24.70;;;2.78;;
28166;SDS011;15455;53.376;-6.262;2024-01-27T13:36:13;16.10;;;2.72;;
28166;SDS011;15455;53.376;-6.262;2024-01-27T13:38:59;22.60;;;2.92;;
28166;SDS011;15455;53.376;-6.262;2024-01-27T13:41:45;19.60;;;3.13;;
28166;SDS011;15455;53.376;-6.262;2024-01-27T13:44:30;22.45;;;3.13;;
28166;SDS011;15455;53.376;-6.262;2024-01-27T13:47:20;15.30;;;2.50;;
28166;SDS011;15455;53.376;-6.262;2024-01-27T13:50:06;14.73;;;3.53;;
28166;SDS011;15455;53.376;-6.262;2024-01-27T13:52:53;26.98;;;4.57;;
28166;SDS011;15455;53.376;-6.262;2024-01-27T13:55:39;15.15;;;2.10;;
28166;SDS011;15455;53.376;-6.262;2024-01-27T13:58:25;13.32;;;2.22;;
28166;SDS011;15455;53.376;-6.262;2024-01-27T14:01:12;12.65;;;2.63;;
28166;SDS011;15455;53.376;-6.262;2024-01-27T14:03:58;18.52;;;3.28;;
28166;SDS011;15455;53.376;-6.262;2024-01-27T14:06:43;17.33;;;3.08;;
28166;SDS011;15455;53.376;-6.262;2024-01-27T14:09:29;14.45;;;2.95;;
28166;SDS011;15455;53.376;-6.262;2024-01-27T14:12:15;11.15;;;2.85;;
28166;SDS011;15455;53.376;-6.262;2024-01-27T14:15:04;16.38;;;2.17;;
28166;SDS011;15455;53.376;-6.262;2024-01-27T14:17:53;22.73;;;2.85;;
28166;SDS011;15455;53.376;-6.262;2024-01-27T14:20:40;19.92;;;3.28;;
28166;SDS011;15455;53.376;-6.262;2024-01-27T14:23:26;19.67;;;2.83;;
28166;SDS011;15455;53.376;-6.262;2024-01-27T14:26:12;13.98;;;2.92;;
28166;SDS011;15455;53.376;-6.262;2024-01-27T14:29:01;17.20;;;2.78;;
28166;SDS011;15455;53.376;-6.262;2024-01-27T14:31:47;28.45;;;2.88;;
28166;SDS011;15455;53.376;-6.262;2024-01-27T14:34:32;21.98;;;2.95;;
28166;SDS011;15455;53.376;-6.262;2024-01-27T14:37:18;14.98;;;2.58;;
28166;SDS011;15455;53.376;-6.262;2024-01-27T14:40:04;23.25;;;3.42;;
28166;SDS011;15455;53.376;-6.262;2024-01-27T14:42:50;20.92;;;3.15;;
28166;SDS011;15455;53.376;-6.262;2024-01-27T14:45:37;13.85;;;2.53;;
28166;SDS011;15455;53.376;-6.262;2024-01-27T14:48:23;24.48;;;3.22;;
28166;SDS011;15455;53.376;-6.262;2024-01-27T14:51:09;18.20;;;5.05;;
28166;SDS011;15455;53.376;-6.262;2024-01-27T14:53:54;17.63;;;3.20;;
28166;SDS011;15455;53.376;-6.262;2024-01-27T14:56:41;20.48;;;3.10;;
28166;SDS011;15455;53.376;-6.262;2024-01-27T14:59:27;16.17;;;3.22;;
28166;SDS011;15455;53.376;-6.262;2024-01-27T15:02:13;18.35;;;3.10;;
28166;SDS011;15455;53.376;-6.262;2024-01-27T15:05:01;17.52;;;3.03;;
28166;SDS011;15455;53.376;-6.262;2024-01-27T15:07:46;13.70;;;3.35;;
28166;SDS011;15455;53.376;-6.262;2024-01-27T15:10:32;15.02;;;2.20;;
28166;SDS011;15455;53.376;-6.262;2024-01-27T15:13:18;17.55;;;3.03;;
28166;SDS011;15455;53.376;-6.262;2024-01-27T15:16:09;20.58;;;3.85;;
28166;SDS011;15455;53.376;-6.262;2024-01-27T15:18:54;10.07;;;2.78;;
28166;SDS011;15455;53.376;-6.262;2024-01-27T15:21:40;22.92;;;3.08;;
28166;SDS011;15455;53.376;-6.262;2024-01-27T15:24:26;12.07;;;3.33;;
28166;SDS011;15455;53.376;-6.262;2024-01-27T15:27:11;19.70;;;3.47;;
28166;SDS011;15455;53.376;-6.262;2024-01-27T15:29:58;22.77;;;3.67;;
28166;SDS011;15455;53.376;-6.262;2024-01-27T15:32:47;8.32;;;2.45;;
28166;SDS011;15455;53.376;-6.262;2024-01-27T15:35:33;15.48;;;2.35;;
28166;SDS011;15455;53.376;-6.262;2024-01-27T15:38:25;15.55;;;2.95;;
28166;SDS011;15455;53.376;-6.262;2024-01-27T15:41:11;26.27;;;3.45;;
28166;SDS011;15455;53.376;-6.262;2024-01-27T15:43:56;14.35;;;3.03;;
28166;SDS011;15455;53.376;-6.262;2024-01-27T15:46:43;19.95;;;3.53;;
28166;SDS011;15455;53.376;-6.262;2024-01-27T15:49:28;16.15;;;4.32;;
28166;SDS011;15455;53.376;-6.262;2024-01-27T15:52:14;18.00;;;3.83;;
28166;SDS011;15455;53.376;-6.262;2024-01-27T15:55:00;22.10;;;3.97;;
28166;SDS011;15455;53.376;-6.262;2024-01-27T15:57:46;17.58;;;6.05;;
28166;SDS011;15455;53.376;-6.262;2024-01-27T16:00:31;23.65;;;5.28;;
28166;SDS011;15455;53.376;-6.262;2024-01-27T16:03:17;16.02;;;2.92;;
28166;SDS011;15455;53.376;-6.262;2024-01-27T16:06:02;9.63;;;2.47;;
28166;SDS011;15455;53.376;-6.262;2024-01-27T16:08:50;11.50;;;2.40;;
28166;SDS011;15455;53.376;-6.262;2024-01-27T16:11:36;23.25;;;3.90;;
28166;SDS011;15455;53.376;-6.262;2024-01-27T16:14:22;17.63;;;3.88;;
28166;SDS011;15455;53.376;-6.262;2024-01-27T16:17:08;19.83;;;3.80;;